sensor_id;sensor_type;location;lat;lon;timestamp;pressure;altitude;pressure_sealevel;temperature;humidity
40998;BME280;26740;45.944;12.480;2023-01-28T00:00:32;101222.97;;;1.47;100.00
40998;BME280;26740;45.944;12.480;2023-01-28T00:02:57;101227.66;;;1.76;100.00
40998;BME280;26740;45.944;12.480;2023-01-28T00:05:23;101223.97;;;1.69;100.00
40998;BME280;26740;45.944;12.480;2023-01-28T00:07:50;101220.34;;;1.30;100.00
40998;BME280;26740;45.944;12.480;2023-01-28T00:10:16;101223.06;;;1.07;100.00
40998;BME280;26740;45.944;12.480;2023-01-28T00:12:41;101219.34;;;1.00;100.00
40998;BME280;26740;45.944;12.480;2023-01-28T00:15:08;101228.44;;;1.01;100.00
40998;BME280;26740;45.944;12.480;2023-01-28T00:17:35;101220.56;;;0.98;100.00
40998;BME280;26740;45.944;12.480;2023-01-28T00:20:02;101217.97;;;1.04;100.00
40998;BME280;26740;45.944;12.480;2023-01-28T00:22:28;101216.13;;;0.97;100.00
40998;BME280;26740;45.944;12.480;2023-01-28T00:24:54;101229.00;;;0.88;100.00
40998;BME280;26740;45.944;12.480;2023-01-28T00:27:19;101218.66;;;0.75;100.00
40998;BME280;26740;45.944;12.480;2023-01-28T00:29:45;101224.94;;;0.75;100.00
40998;BME280;26740;45.944;12.480;2023-01-28T00:32:10;101235.44;;;0.64;100.00
40998;BME280;26740;45.944;12.480;2023-01-28T00:34:36;101216.19;;;0.49;100.00
40998;BME280;26740;45.944;12.480;2023-01-28T00:37:01;101228.72;;;0.35;100.00
40998;BME280;26740;45.944;12.480;2023-01-28T00:39:27;101232.34;;;0.27;100.00
40998;BME280;26740;45.944;12.480;2023-01-28T00:41:53;101239.53;;;0.20;100.00
40998;BME280;26740;45.944;12.480;2023-01-28T00:44:19;101232.50;;;0.26;100.00
40998;BME280;26740;45.944;12.480;2023-01-28T00:46:45;101240.22;;;0.14;100.00
40998;BME280;26740;45.944;12.480;2023-01-28T00:49:11;101243.28;;;0.19;100.00
40998;BME280;26740;45.944;12.480;2023-01-28T00:51:36;101251.16;;;0.06;100.00
40998;BME280;26740;45.944;12.480;2023-01-28T00:54:02;101244.69;;;-0.10;100.00
40998;BME280;26740;45.944;12.480;2023-01-28T00:56:28;101250.84;;;-0.16;100.00
40998;BME280;26740;45.944;12.480;2023-01-28T00:58:54;101245.72;;;-0.35;100.00
40998;BME280;26740;45.944;12.480;2023-01-28T01:01:24;101251.22;;;-0.44;100.00
40998;BME280;26740;45.944;12.480;2023-01-28T01:03:50;101259.38;;;-0.52;100.00
40998;BME280;26740;45.944;12.480;2023-01-28T01:06:23;101264.31;;;-0.55;100.00
40998;BME280;26740;45.944;12.480;2023-01-28T01:08:49;101262.59;;;-0.73;100.00
40998;BME280;26740;45.944;12.480;2023-01-28T01:11:16;101258.34;;;-0.75;100.00
40998;BME280;26740;45.944;12.480;2023-01-28T01:13:42;101260.53;;;-0.71;100.00
40998;BME280;26740;45.944;12.480;2023-01-28T01:16:10;101266.00;;;-0.79;100.00
40998;BME280;26740;45.944;12.480;2023-01-28T01:18:37;101268.50;;;-0.94;100.00
40998;BME280;26740;45.944;12.480;2023-01-28T01:21:11;101266.13;;;-1.05;100.00
40998;BME280;26740;45.944;12.480;2023-01-28T01:23:37;101272.94;;;-1.09;100.00
40998;BME280;26740;45.944;12.480;2023-01-28T01:26:04;101266.44;;;-1.08;100.00
40998;BME280;26740;45.944;12.480;2023-01-28T01:28:30;101273.09;;;-1.11;100.00
40998;BME280;26740;45.944;12.480;2023-01-28T01:31:04;101272.03;;;-1.18;100.00
40998;BME280;26740;45.944;12.480;2023-01-28T01:33:30;101273.22;;;-1.21;100.00
40998;BME280;26740;45.944;12.480;2023-01-28T01:35:57;101277.66;;;-1.20;100.00
40998;BME280;26740;45.944;12.480;2023-01-28T01:38:23;101268.31;;;-1.09;100.00
40998;BME280;26740;45.944;12.480;2023-01-28T01:40:48;101271.56;;;-1.05;100.00
40998;BME280;26740;45.944;12.480;2023-01-28T01:43:20;101272.41;;;-1.05;100.00
40998;BME280;26740;45.944;12.480;2023-01-28T01:45:50;101274.66;;;-1.00;100.00
40998;BME280;26740;45.944;12.480;2023-01-28T01:48:22;101272.25;;;-1.03;100.00
40998;BME280;26740;45.944;12.480;2023-01-28T01:51:24;101267.16;;;-0.98;100.00
40998;BME280;26740;45.944;12.480;2023-01-28T01:53:52;101265.06;;;-1.04;100.00
40998;BME280;26740;45.944;12.480;2023-01-28T01:56:21;101274.09;;;-1.12;100.00
40998;BME280;26740;45.944;12.480;2023-01-28T01:58:50;101272.47;;;-1.31;100.00
40998;BME280;26740;45.944;12.480;2023-01-28T02:01:23;101273.16;;;-1.37;100.00
40998;BME280;26740;45.944;12.480;2023-01-28T02:04:02;101271.81;;;-1.33;100.00
40998;BME280;26740;45.944;12.480;2023-01-28T02:06:30;101272.13;;;-1.36;100.00
40998;BME280;26740;45.944;12.480;2023-01-28T02:08:55;101268.34;;;-1.43;100.00
40998;BME280;26740;45.944;12.480;2023-01-28T02:11:24;101265.47;;;-1.42;100.00
40998;BME280;26740;45.944;12.480;2023-01-28T02:13:53;101266.31;;;-1.41;100.00
40998;BME280;26740;45.944;12.480;2023-01-28T02:16:21;101263.94;;;-1.44;100.00
40998;BME280;26740;45.944;12.480;2023-01-28T02:18:47;101262.06;;;-1.44;100.00
40998;BME280;26740;45.944;12.480;2023-01-28T02:30:37;101264.91;;;-1.88;100.00
40998;BME280;26740;45.944;12.480;2023-01-28T02:32:46;101273.44;;;-1.83;100.00
40998;BME280;26740;45.944;12.480;2023-01-28T02:35:17;101273.91;;;-1.87;100.00
40998;BME280;26740;45.944;12.480;2023-01-28T02:38:14;101277.00;;;-1.82;100.00
40998;BME280;26740;45.944;12.480;2023-01-28T02:40:39;101280.78;;;-1.75;100.00
40998;BME280;26740;45.944;12.480;2023-01-28T02:43:30;101283.78;;;-1.86;100.00
40998;BME280;26740;45.944;12.480;2023-01-28T02:45:56;101288.56;;;-1.80;100.00
40998;BME280;26740;45.944;12.480;2023-01-28T02:48:40;101284.25;;;-1.91;100.00
40998;BME280;26740;45.944;12.480;2023-01-28T02:51:19;101288.16;;;-1.94;100.00
40998;BME280;26740;45.944;12.480;2023-01-28T02:54:29;101284.56;;;-1.94;100.00
40998;BME280;26740;45.944;12.480;2023-01-28T03:00:15;101291.84;;;-2.03;100.00
40998;BME280;26740;45.944;12.480;2023-01-28T03:02:52;101298.59;;;-2.07;100.00
40998;BME280;26740;45.944;12.480;2023-01-28T03:05:30;101296.16;;;-2.18;100.00
40998;BME280;26740;45.944;12.480;2023-01-28T03:08:00;101298.03;;;-2.19;100.00
40998;BME280;26740;45.944;12.480;2023-01-28T03:10:47;101292.19;;;-2.24;100.00
40998;BME280;26740;45.944;12.480;2023-01-28T03:13:32;101301.41;;;-1.99;100.00
40998;BME280;26740;45.944;12.480;2023-01-28T03:16:16;101311.75;;;-1.76;100.00
40998;BME280;26740;45.944;12.480;2023-01-28T03:19:01;101298.31;;;-1.78;100.00
40998;BME280;26740;45.944;12.480;2023-01-28T03:21:47;101303.22;;;-1.81;100.00
40998;BME280;26740;45.944;12.480;2023-01-28T03:24:34;101299.16;;;-1.77;100.00
40998;BME280;26740;45.944;12.480;2023-01-28T03:27:32;101310.09;;;-1.69;100.00
40998;BME280;26740;45.944;12.480;2023-01-28T03:30:26;101307.38;;;-1.69;100.00
40998;BME280;26740;45.944;12.480;2023-01-28T03:33:12;101302.41;;;-1.74;100.00
40998;BME280;26740;45.944;12.480;2023-01-28T03:35:56;101298.69;;;-1.73;100.00
40998;BME280;26740;45.944;12.480;2023-01-28T03:38:41;101307.63;;;-1.80;100.00
40998;BME280;26740;45.944;12.480;2023-01-28T03:41:11;101302.78;;;-1.95;100.00
40998;BME280;26740;45.944;12.480;2023-01-28T03:43:36;101313.28;;;-2.00;100.00
40998;BME280;26740;45.944;12.480;2023-01-28T03:46:03;101299.47;;;-2.06;100.00
40998;BME280;26740;45.944;12.480;2023-01-28T03:48:31;101315.47;;;-2.03;100.00
40998;BME280;26740;45.944;12.480;2023-01-28T03:50:57;101308.78;;;-2.09;100.00
40998;BME280;26740;45.944;12.480;2023-01-28T03:53:25;101314.88;;;-2.15;100.00
40998;BME280;26740;45.944;12.480;2023-01-28T03:55:53;101312.69;;;-2.12;100.00
40998;BME280;26740;45.944;12.480;2023-01-28T03:58:19;101316.25;;;-2.11;100.00
40998;BME280;26740;45.944;12.480;2023-01-28T04:00:46;101312.75;;;-2.03;100.00
40998;BME280;26740;45.944;12.480;2023-01-28T04:03:16;101309.97;;;-2.12;100.00
40998;BME280;26740;45.944;12.480;2023-01-28T04:05:44;101317.53;;;-2.23;100.00
40998;BME280;26740;45.944;12.480;2023-01-28T04:08:10;101319.56;;;-2.25;100.00
40998;BME280;26740;45.944;12.480;2023-01-28T04:10:39;101319.16;;;-2.31;100.00
40998;BME280;26740;45.944;12.480;2023-01-28T04:13:06;101323.91;;;-2.33;100.00
40998;BME280;26740;45.944;12.480;2023-01-28T04:15:31;101327.41;;;-2.40;100.00
40998;BME280;26740;45.944;12.480;2023-01-28T04:17:57;101319.09;;;-2.39;100.00
40998;BME280;26740;45.944;12.480;2023-01-28T04:20:23;101318.63;;;-2.52;100.00
40998;BME280;26740;45.944;12.480;2023-01-28T04:22:49;101322.13;;;-2.60;100.00
40998;BME280;26740;45.944;12.480;2023-01-28T04:25:14;101317.47;;;-2.68;100.00
40998;BME280;26740;45.944;12.480;2023-01-28T04:27:40;101314.88;;;-2.69;100.00
40998;BME280;26740;45.944;12.480;2023-01-28T04:30:06;101319.53;;;-2.79;100.00
40998;BME280;26740;45.944;12.480;2023-01-28T04:32:32;101323.69;;;-2.75;100.00
40998;BME280;26740;45.944;12.480;2023-01-28T04:34:57;101324.66;;;-2.76;100.00
40998;BME280;26740;45.944;12.480;2023-01-28T04:37:23;101331.72;;;-2.83;100.00
40998;BME280;26740;45.944;12.480;2023-01-28T04:39:48;101328.72;;;-2.80;100.00
40998;BME280;26740;45.944;12.480;2023-01-28T04:42:14;101340.84;;;-2.75;100.00
40998;BME280;26740;45.944;12.480;2023-01-28T04:44:39;101339.44;;;-2.61;100.00
40998;BME280;26740;45.944;12.480;2023-01-28T04:47:05;101346.66;;;-2.52;100.00
40998;BME280;26740;45.944;12.480;2023-01-28T04:49:30;101344.19;;;-2.45;100.00
40998;BME280;26740;45.944;12.480;2023-01-28T04:51:57;101350.38;;;-2.53;100.00
40998;BME280;26740;45.944;12.480;2023-01-28T04:54:22;101351.88;;;-2.58;100.00
40998;BME280;26740;45.944;12.480;2023-01-28T04:56:48;101350.00;;;-2.58;100.00
40998;BME280;26740;45.944;12.480;2023-01-28T04:59:13;101351.47;;;-2.63;100.00
40998;BME280;26740;45.944;12.480;2023-01-28T05:01:39;101356.66;;;-2.70;100.00
40998;BME280;26740;45.944;12.480;2023-01-28T05:04:04;101363.66;;;-2.68;100.00
40998;BME280;26740;45.944;12.480;2023-01-28T05:06:31;101359.78;;;-2.65;100.00
40998;BME280;26740;45.944;12.480;2023-01-28T05:08:57;101360.41;;;-2.53;100.00
40998;BME280;26740;45.944;12.480;2023-01-28T05:11:23;101359.88;;;-2.57;100.00
40998;BME280;26740;45.944;12.480;2023-01-28T05:13:49;101358.53;;;-2.53;100.00
40998;BME280;26740;45.944;12.480;2023-01-28T05:16:15;101366.31;;;-2.58;100.00
40998;BME280;26740;45.944;12.480;2023-01-28T05:18:41;101369.81;;;-2.65;100.00
40998;BME280;26740;45.944;12.480;2023-01-28T05:21:07;101372.53;;;-2.65;100.00
40998;BME280;26740;45.944;12.480;2023-01-28T05:23:32;101369.81;;;-2.65;100.00
40998;BME280;26740;45.944;12.480;2023-01-28T05:25:58;101374.78;;;-2.61;100.00
40998;BME280;26740;45.944;12.480;2023-01-28T05:28:24;101371.94;;;-2.59;100.00
40998;BME280;26740;45.944;12.480;2023-01-28T05:30:49;101374.31;;;-2.56;100.00
40998;BME280;26740;45.944;12.480;2023-01-28T05:33:15;101369.34;;;-2.61;100.00
40998;BME280;26740;45.944;12.480;2023-01-28T05:35:41;101371.94;;;-2.59;100.00
40998;BME280;26740;45.944;12.480;2023-01-28T05:38:07;101380.44;;;-2.72;100.00
40998;BME280;26740;45.944;12.480;2023-01-28T05:40:33;101386.75;;;-2.72;100.00
40998;BME280;26740;45.944;12.480;2023-01-28T05:42:59;101383.75;;;-2.78;100.00
40998;BME280;26740;45.944;12.480;2023-01-28T05:45:25;101379.19;;;-2.78;100.00
40998;BME280;26740;45.944;12.480;2023-01-28T05:47:50;101382.44;;;-2.74;100.00
40998;BME280;26740;45.944;12.480;2023-01-28T05:50:16;101388.13;;;-2.68;100.00
40998;BME280;26740;45.944;12.480;2023-01-28T05:52:42;101394.81;;;-2.62;100.00
40998;BME280;26740;45.944;12.480;2023-01-28T05:55:08;101383.00;;;-2.71;100.00
40998;BME280;26740;45.944;12.480;2023-01-28T05:57:34;101390.59;;;-2.74;100.00
40998;BME280;26740;45.944;12.480;2023-01-28T05:59:59;101389.75;;;-2.75;100.00
40998;BME280;26740;45.944;12.480;2023-01-28T06:02:25;101395.47;;;-2.78;100.00
40998;BME280;26740;45.944;12.480;2023-01-28T06:04:50;101402.41;;;-2.93;100.00
40998;BME280;26740;45.944;12.480;2023-01-28T06:07:16;101401.31;;;-3.00;100.00
40998;BME280;26740;45.944;12.480;2023-01-28T06:09:45;101406.19;;;-3.04;100.00
40998;BME280;26740;45.944;12.480;2023-01-28T06:12:11;101416.63;;;-2.99;100.00
40998;BME280;26740;45.944;12.480;2023-01-28T06:14:37;101412.09;;;-3.09;100.00
40998;BME280;26740;45.944;12.480;2023-01-28T06:17:02;101416.22;;;-3.14;100.00
40998;BME280;26740;45.944;12.480;2023-01-28T06:19:28;101415.22;;;-3.03;100.00
40998;BME280;26740;45.944;12.480;2023-01-28T06:21:54;101423.50;;;-3.05;100.00
40998;BME280;26740;45.944;12.480;2023-01-28T06:24:20;101426.53;;;-3.18;100.00
40998;BME280;26740;45.944;12.480;2023-01-28T06:26:45;101424.88;;;-3.29;100.00
40998;BME280;26740;45.944;12.480;2023-01-28T06:29:11;101436.06;;;-3.41;100.00
40998;BME280;26740;45.944;12.480;2023-01-28T06:31:36;101438.34;;;-3.37;100.00
40998;BME280;26740;45.944;12.480;2023-01-28T06:34:02;101447.75;;;-3.31;100.00
40998;BME280;26740;45.944;12.480;2023-01-28T06:36:28;101452.03;;;-3.29;100.00
40998;BME280;26740;45.944;12.480;2023-01-28T06:38:54;101462.03;;;-3.29;100.00
40998;BME280;26740;45.944;12.480;2023-01-28T06:41:20;101469.19;;;-3.28;100.00
40998;BME280;26740;45.944;12.480;2023-01-28T06:43:45;101467.88;;;-3.24;100.00
40998;BME280;26740;45.944;12.480;2023-01-28T06:46:11;101472.16;;;-3.21;100.00
40998;BME280;26740;45.944;12.480;2023-01-28T06:48:37;101475.28;;;-3.16;100.00
40998;BME280;26740;45.944;12.480;2023-01-28T06:51:02;101478.28;;;-3.10;100.00
40998;BME280;26740;45.944;12.480;2023-01-28T06:53:28;101480.16;;;-2.73;100.00
40998;BME280;26740;45.944;12.480;2023-01-28T06:55:53;101469.59;;;-2.48;100.00
40998;BME280;26740;45.944;12.480;2023-01-28T06:58:19;101476.94;;;-2.13;100.00
40998;BME280;26740;45.944;12.480;2023-01-28T07:00:45;101496.00;;;-1.95;100.00
40998;BME280;26740;45.944;12.480;2023-01-28T07:03:10;101491.66;;;-1.51;100.00
40998;BME280;26740;45.944;12.480;2023-01-28T07:05:36;101489.00;;;-1.17;100.00
40998;BME280;26740;45.944;12.480;2023-01-28T07:08:03;101496.13;;;-0.98;100.00
40998;BME280;26740;45.944;12.480;2023-01-28T07:10:29;101502.03;;;-0.77;100.00
40998;BME280;26740;45.944;12.480;2023-01-28T07:12:54;101505.34;;;-0.57;100.00
40998;BME280;26740;45.944;12.480;2023-01-28T07:15:20;101506.66;;;0.16;100.00
40998;BME280;26740;45.944;12.480;2023-01-28T07:17:45;101520.00;;;0.85;100.00
40998;BME280;26740;45.944;12.480;2023-01-28T07:20:13;101513.63;;;1.26;100.00
40998;BME280;26740;45.944;12.480;2023-01-28T07:22:40;101507.41;;;1.80;100.00
40998;BME280;26740;45.944;12.480;2023-01-28T07:25:07;101510.94;;;2.51;100.00
40998;BME280;26740;45.944;12.480;2023-01-28T07:27:33;101510.41;;;3.09;100.00
40998;BME280;26740;45.944;12.480;2023-01-28T07:29:59;101515.19;;;3.74;100.00
40998;BME280;26740;45.944;12.480;2023-01-28T07:32:24;101512.44;;;4.11;100.00
40998;BME280;26740;45.944;12.480;2023-01-28T07:34:53;101523.44;;;4.11;100.00
40998;BME280;26740;45.944;12.480;2023-01-28T07:37:19;101527.63;;;4.43;100.00
40998;BME280;26740;45.944;12.480;2023-01-28T07:39:45;101521.31;;;5.49;100.00
40998;BME280;26740;45.944;12.480;2023-01-28T07:42:12;101526.69;;;5.99;100.00
40998;BME280;26740;45.944;12.480;2023-01-28T07:44:38;101524.06;;;6.45;100.00
40998;BME280;26740;45.944;12.480;2023-01-28T07:47:05;101522.00;;;6.88;88.40
40998;BME280;26740;45.944;12.480;2023-01-28T07:49:32;101523.69;;;7.29;84.50
40998;BME280;26740;45.944;12.480;2023-01-28T07:51:58;101518.19;;;7.15;85.55
40998;BME280;26740;45.944;12.480;2023-01-28T07:54:25;101525.81;;;7.47;82.27
40998;BME280;26740;45.944;12.480;2023-01-28T07:56:50;101529.63;;;8.18;79.88
40998;BME280;26740;45.944;12.480;2023-01-28T07:59:16;101532.25;;;8.51;76.65
40998;BME280;26740;45.944;12.480;2023-01-28T08:01:43;101535.50;;;8.34;76.77
40998;BME280;26740;45.944;12.480;2023-01-28T08:04:08;101528.22;;;8.47;77.94
40998;BME280;26740;45.944;12.480;2023-01-28T08:06:34;101537.31;;;8.54;77.06
40998;BME280;26740;45.944;12.480;2023-01-28T08:09:05;101543.63;;;8.68;75.17
40998;BME280;26740;45.944;12.480;2023-01-28T08:11:36;101544.97;;;8.90;74.58
40998;BME280;26740;45.944;12.480;2023-01-28T08:14:02;101549.50;;;9.10;74.01
40998;BME280;26740;45.944;12.480;2023-01-28T08:16:28;101550.91;;;8.94;73.90
40998;BME280;26740;45.944;12.480;2023-01-28T08:18:54;101552.34;;;8.71;74.14
40998;BME280;26740;45.944;12.480;2023-01-28T08:21:20;101552.31;;;9.03;74.18
40998;BME280;26740;45.944;12.480;2023-01-28T08:23:46;101548.69;;;8.78;74.69
40998;BME280;26740;45.944;12.480;2023-01-28T08:26:12;101558.66;;;9.79;71.35
40998;BME280;26740;45.944;12.480;2023-01-28T08:28:38;101555.66;;;9.62;71.36
40998;BME280;26740;45.944;12.480;2023-01-28T08:31:04;101550.28;;;10.72;68.60
40998;BME280;26740;45.944;12.480;2023-01-28T08:33:30;101552.72;;;11.46;65.32
40998;BME280;26740;45.944;12.480;2023-01-28T08:35:56;101549.69;;;11.83;63.00
40998;BME280;26740;45.944;12.480;2023-01-28T08:38:22;101551.84;;;11.57;62.98
40998;BME280;26740;45.944;12.480;2023-01-28T08:40:48;101543.38;;;10.62;65.62
40998;BME280;26740;45.944;12.480;2023-01-28T08:43:19;101557.69;;;9.92;65.59
40998;BME280;26740;45.944;12.480;2023-01-28T08:45:46;101557.78;;;9.17;68.77
40998;BME280;26740;45.944;12.480;2023-01-28T08:48:14;101560.59;;;7.81;76.12
40998;BME280;26740;45.944;12.480;2023-01-28T08:50:41;101557.25;;;7.32;77.71
40998;BME280;26740;45.944;12.480;2023-01-28T08:53:10;101552.81;;;6.78;79.24
40998;BME280;26740;45.944;12.480;2023-01-28T08:55:36;101555.06;;;6.54;81.42
40998;BME280;26740;45.944;12.480;2023-01-28T08:58:09;101563.28;;;6.28;86.09
40998;BME280;26740;45.944;12.480;2023-01-28T09:00:35;101556.88;;;6.20;81.70
40998;BME280;26740;45.944;12.480;2023-01-28T09:03:02;101568.31;;;5.76;85.77
40998;BME280;26740;45.944;12.480;2023-01-28T09:05:28;101565.84;;;5.59;87.85
40998;BME280;26740;45.944;12.480;2023-01-28T09:07:54;101572.25;;;5.66;88.87
40998;BME280;26740;45.944;12.480;2023-01-28T09:10:20;101570.25;;;5.82;88.90
40998;BME280;26740;45.944;12.480;2023-01-28T09:12:46;101573.75;;;5.97;90.82
40998;BME280;26740;45.944;12.480;2023-01-28T09:15:12;101579.09;;;5.70;84.60
40998;BME280;26740;45.944;12.480;2023-01-28T09:17:39;101581.09;;;5.55;88.14
40998;BME280;26740;45.944;12.480;2023-01-28T09:20:05;101579.66;;;5.09;86.32
40998;BME280;26740;45.944;12.480;2023-01-28T09:22:32;101580.75;;;5.08;89.92
40998;BME280;26740;45.944;12.480;2023-01-28T09:24:58;101586.38;;;5.85;82.60
40998;BME280;26740;45.944;12.480;2023-01-28T09:27:24;101575.91;;;6.08;81.98
40998;BME280;26740;45.944;12.480;2023-01-28T09:29:50;101583.94;;;6.03;86.23
40998;BME280;26740;45.944;12.480;2023-01-28T09:32:15;101588.47;;;6.11;82.88
40998;BME280;26740;45.944;12.480;2023-01-28T09:34:41;101591.72;;;5.93;85.66
40998;BME280;26740;45.944;12.480;2023-01-28T09:37:09;101588.09;;;5.86;85.23
40998;BME280;26740;45.944;12.480;2023-01-28T09:39:36;101589.31;;;6.73;82.11
40998;BME280;26740;45.944;12.480;2023-01-28T09:44:53;101604.22;;;6.24;82.53
40998;BME280;26740;45.944;12.480;2023-01-28T09:47:34;101594.03;;;7.06;80.05
40998;BME280;26740;45.944;12.480;2023-01-28T09:50:06;101605.50;;;7.50;77.27
40998;BME280;26740;45.944;12.480;2023-01-28T09:52:36;101597.63;;;7.80;76.52
40998;BME280;26740;45.944;12.480;2023-01-28T09:55:16;101592.75;;;7.42;77.80
40998;BME280;26740;45.944;12.480;2023-01-28T09:57:53;101590.41;;;7.39;73.78
40998;BME280;26740;45.944;12.480;2023-01-28T10:00:31;101591.66;;;6.90;77.01
40998;BME280;26740;45.944;12.480;2023-01-28T10:06:27;101590.50;;;6.51;79.31
40998;BME280;26740;45.944;12.480;2023-01-28T10:14:27;101582.78;;;8.33;72.54
40998;BME280;26740;45.944;12.480;2023-01-28T10:19:36;101586.06;;;8.94;72.57
40998;BME280;26740;45.944;12.480;2023-01-28T10:22:12;101587.06;;;9.31;70.18
40998;BME280;26740;45.944;12.480;2023-01-28T10:24:47;101589.41;;;9.34;68.79
40998;BME280;26740;45.944;12.480;2023-01-28T10:27:25;101596.72;;;9.72;66.16
40998;BME280;26740;45.944;12.480;2023-01-28T10:29:52;101585.13;;;9.32;68.00
40998;BME280;26740;45.944;12.480;2023-01-28T10:32:29;101583.34;;;8.42;70.67
40998;BME280;26740;45.944;12.480;2023-01-28T10:34:55;101587.28;;;9.55;68.30
40998;BME280;26740;45.944;12.480;2023-01-28T10:37:24;101593.13;;;9.21;64.70
40998;BME280;26740;45.944;12.480;2023-01-28T10:39:53;101575.72;;;8.44;68.70
40998;BME280;26740;45.944;12.480;2023-01-28T10:42:27;101578.13;;;8.20;72.26
40998;BME280;26740;45.944;12.480;2023-01-28T10:45:01;101566.66;;;8.10;75.22
40998;BME280;26740;45.944;12.480;2023-01-28T10:47:38;101563.28;;;8.01;75.11
40998;BME280;26740;45.944;12.480;2023-01-28T10:50:15;101561.66;;;8.39;73.68
40998;BME280;26740;45.944;12.480;2023-01-28T10:53:01;101559.25;;;8.56;73.65
40998;BME280;26740;45.944;12.480;2023-01-28T10:58:23;101557.06;;;8.64;71.59
40998;BME280;26740;45.944;12.480;2023-01-28T11:00:54;101555.28;;;8.77;70.98
40998;BME280;26740;45.944;12.480;2023-01-28T11:03:22;101551.22;;;8.86;69.59
40998;BME280;26740;45.944;12.480;2023-01-28T11:05:52;101543.16;;;8.32;70.31
40998;BME280;26740;45.944;12.480;2023-01-28T11:08:19;101540.50;;;8.12;72.13
40998;BME280;26740;45.944;12.480;2023-01-28T11:10:47;101537.66;;;7.74;75.38
40998;BME280;26740;45.944;12.480;2023-01-28T11:13:27;101533.84;;;7.62;74.37
40998;BME280;26740;45.944;12.480;2023-01-28T11:15:59;101528.81;;;7.38;75.08
40998;BME280;26740;45.944;12.480;2023-01-28T11:18:39;101525.34;;;7.70;73.85
40998;BME280;26740;45.944;12.480;2023-01-28T11:21:31;101531.69;;;9.49;67.40
40998;BME280;26740;45.944;12.480;2023-01-28T11:24:03;101527.22;;;10.04;64.37
40998;BME280;26740;45.944;12.480;2023-01-28T11:26:31;101538.88;;;9.94;60.48
40998;BME280;26740;45.944;12.480;2023-01-28T11:28:58;101533.25;;;9.64;60.59
40998;BME280;26740;45.944;12.480;2023-01-28T11:31:25;101524.91;;;9.82;62.32
40998;BME280;26740;45.944;12.480;2023-01-28T11:33:56;101543.38;;;10.62;60.09
40998;BME280;26740;45.944;12.480;2023-01-28T11:36:28;101534.09;;;10.38;60.85
40998;BME280;26740;45.944;12.480;2023-01-28T11:39:03;101530.03;;;10.53;58.77
40998;BME280;26740;45.944;12.480;2023-01-28T11:41:41;101529.16;;;10.03;59.55
40998;BME280;26740;45.944;12.480;2023-01-28T11:44:25;101531.84;;;9.92;60.59
40998;BME280;26740;45.944;12.480;2023-01-28T11:46:58;101530.16;;;9.91;61.57
40998;BME280;26740;45.944;12.480;2023-01-28T11:57:24;101530.22;;;9.47;63.35
40998;BME280;26740;45.944;12.480;2023-01-28T12:00:18;101530.84;;;9.24;65.24
40998;BME280;26740;45.944;12.480;2023-01-28T12:08:35;101529.84;;;8.93;62.07
40998;BME280;26740;45.944;12.480;2023-01-28T12:14:34;101523.28;;;9.13;61.82
40998;BME280;26740;45.944;12.480;2023-01-28T12:20:18;101525.66;;;9.34;59.78
40998;BME280;26740;45.944;12.480;2023-01-28T12:28:36;101511.47;;;8.73;63.42
40998;BME280;26740;45.944;12.480;2023-01-28T12:31:38;101511.28;;;9.19;67.51
40998;BME280;26740;45.944;12.480;2023-01-28T12:34:16;101513.28;;;9.55;65.00
40998;BME280;26740;45.944;12.480;2023-01-28T12:45:01;101498.25;;;9.44;60.63
40998;BME280;26740;45.944;12.480;2023-01-28T12:47:34;101488.25;;;9.43;62.73
40998;BME280;26740;45.944;12.480;2023-01-28T12:52:43;101494.00;;;9.23;59.31
40998;BME280;26740;45.944;12.480;2023-01-28T12:55:17;101489.94;;;9.01;67.71
40998;BME280;26740;45.944;12.480;2023-01-28T12:57:46;101487.75;;;9.28;64.18
40998;BME280;26740;45.944;12.480;2023-01-28T13:00:39;101486.19;;;8.88;63.61
40998;BME280;26740;45.944;12.480;2023-01-28T13:03:37;101487.41;;;8.29;67.65
40998;BME280;26740;45.944;12.480;2023-01-28T13:06:14;101495.28;;;8.70;66.71
40998;BME280;26740;45.944;12.480;2023-01-28T13:08:43;101488.44;;;8.73;68.42
40998;BME280;26740;45.944;12.480;2023-01-28T13:11:13;101492.91;;;8.99;66.41
40998;BME280;26740;45.944;12.480;2023-01-28T13:13:41;101483.63;;;8.62;67.37
40998;BME280;26740;45.944;12.480;2023-01-28T13:16:10;101480.75;;;8.05;71.36
40998;BME280;26740;45.944;12.480;2023-01-28T13:26:52;101482.66;;;7.39;68.87
40998;BME280;26740;45.944;12.480;2023-01-28T13:29:33;101488.81;;;7.48;69.18
40998;BME280;26740;45.944;12.480;2023-01-28T13:32:01;101482.66;;;7.46;70.09
40998;BME280;26740;45.944;12.480;2023-01-28T13:34:39;101485.56;;;7.71;69.00
40998;BME280;26740;45.944;12.480;2023-01-28T13:37:20;101491.47;;;8.33;66.36
40998;BME280;26740;45.944;12.480;2023-01-28T13:39:56;101490.75;;;8.51;65.14
40998;BME280;26740;45.944;12.480;2023-01-28T13:42:29;101488.22;;;8.36;67.17
40998;BME280;26740;45.944;12.480;2023-01-28T13:45:06;101491.16;;;8.09;68.12
40998;BME280;26740;45.944;12.480;2023-01-28T13:47:34;101483.25;;;7.68;67.57
40998;BME280;26740;45.944;12.480;2023-01-28T13:50:12;101495.13;;;7.75;69.39
40998;BME280;26740;45.944;12.480;2023-01-28T13:53:03;101496.47;;;7.46;68.52
40998;BME280;26740;45.944;12.480;2023-01-28T13:55:34;101502.19;;;7.57;68.38
40998;BME280;26740;45.944;12.480;2023-01-28T14:16:36;101513.66;;;7.68;68.19
40998;BME280;26740;45.944;12.480;2023-01-28T14:19:10;101519.94;;;7.88;68.04
40998;BME280;26740;45.944;12.480;2023-01-28T14:21:37;101519.84;;;8.15;68.95
40998;BME280;26740;45.944;12.480;2023-01-28T14:24:04;101524.84;;;7.93;67.61